Opglabbeek, Belgium
Current Conditions -  °F | °C
As of 12:55 AM on Monday 24 Nov 2014 (Local Time) from EBBL Reporting Station
Overcast Overcast  
Wind Chill: 50°   Ceiling: 600
Heat Index: 50°   Visibility: NA
Dew Point: 48°   Wind: 9mph
Humidity: 94%   Direction: 310°NW
Pressure: 30.03"   Gusts: NA
Location:  51.04°N, 5.58°E
Report Text: EBBL 232355Z AUTO 31008KT //// FEW003/// BKN006/// OVC010/// 10/09 Q1017 YLO
Loading
Personal Weather Stations






























Interactive Weather Map New forecast layout! Learn more

10-Day Weather Forecast

Advertisements
Track Severe Weather on mobile